sensor_id;sensor_type;location;lat;lon;timestamp;P1;durP1;ratioP1;P2;durP2;ratioP2
21038;SDS011;10678;51.002;4.786;2022-11-13T00:00:34;33.67;;;19.07;;
21038;SDS011;10678;51.002;4.786;2022-11-13T00:03:00;37.90;;;21.97;;
21038;SDS011;10678;51.002;4.786;2022-11-13T00:05:26;30.97;;;19.53;;
21038;SDS011;10678;51.002;4.786;2022-11-13T00:07:52;34.90;;;21.87;;
21038;SDS011;10678;51.002;4.786;2022-11-13T00:10:18;36.47;;;20.13;;
21038;SDS011;10678;51.002;4.786;2022-11-13T00:12:43;34.33;;;20.30;;
21038;SDS011;10678;51.002;4.786;2022-11-13T00:15:09;33.07;;;19.67;;
21038;SDS011;10678;51.002;4.786;2022-11-13T00:17:35;36.83;;;20.60;;
21038;SDS011;10678;51.002;4.786;2022-11-13T00:20:00;35.20;;;22.03;;
21038;SDS011;10678;51.002;4.786;2022-11-13T00:22:26;38.67;;;24.20;;
21038;SDS011;10678;51.002;4.786;2022-11-13T00:24:51;35.03;;;23.07;;
21038;SDS011;10678;51.002;4.786;2022-11-13T00:27:18;32.97;;;22.03;;
21038;SDS011;10678;51.002;4.786;2022-11-13T00:29:44;27.13;;;17.47;;
21038;SDS011;10678;51.002;4.786;2022-11-13T00:32:09;24.70;;;16.17;;
21038;SDS011;10678;51.002;4.786;2022-11-13T00:34:35;26.90;;;16.73;;
21038;SDS011;10678;51.002;4.786;2022-11-13T00:37:01;23.57;;;16.33;;
21038;SDS011;10678;51.002;4.786;2022-11-13T00:39:26;26.20;;;18.07;;
21038;SDS011;10678;51.002;4.786;2022-11-13T00:41:52;30.13;;;18.33;;
21038;SDS011;10678;51.002;4.786;2022-11-13T00:44:17;27.50;;;16.97;;
21038;SDS011;10678;51.002;4.786;2022-11-13T00:46:43;29.07;;;17.67;;
21038;SDS011;10678;51.002;4.786;2022-11-13T00:49:09;30.67;;;18.30;;
21038;SDS011;10678;51.002;4.786;2022-11-13T00:51:34;26.80;;;15.73;;
21038;SDS011;10678;51.002;4.786;2022-11-13T00:54:00;29.43;;;16.57;;
21038;SDS011;10678;51.002;4.786;2022-11-13T00:56:26;27.57;;;16.47;;
21038;SDS011;10678;51.002;4.786;2022-11-13T00:58:51;29.67;;;17.40;;
21038;SDS011;10678;51.002;4.786;2022-11-13T01:01:17;25.10;;;15.40;;
21038;SDS011;10678;51.002;4.786;2022-11-13T01:03:44;28.03;;;15.90;;
21038;SDS011;10678;51.002;4.786;2022-11-13T01:06:18;22.47;;;15.20;;
21038;SDS011;10678;51.002;4.786;2022-11-13T01:08:45;24.27;;;15.97;;
21038;SDS011;10678;51.002;4.786;2022-11-13T01:11:12;28.83;;;16.53;;
21038;SDS011;10678;51.002;4.786;2022-11-13T01:13:41;24.33;;;15.10;;
21038;SDS011;10678;51.002;4.786;2022-11-13T01:16:09;28.93;;;15.27;;
21038;SDS011;10678;51.002;4.786;2022-11-13T01:18:35;25.57;;;16.60;;
21038;SDS011;10678;51.002;4.786;2022-11-13T01:21:05;26.43;;;14.90;;
21038;SDS011;10678;51.002;4.786;2022-11-13T01:23:34;21.33;;;14.00;;
21038;SDS011;10678;51.002;4.786;2022-11-13T01:26:08;26.63;;;15.60;;
21038;SDS011;10678;51.002;4.786;2022-11-13T01:28:36;25.10;;;15.30;;
21038;SDS011;10678;51.002;4.786;2022-11-13T01:31:09;24.60;;;15.13;;
21038;SDS011;10678;51.002;4.786;2022-11-13T01:33:40;24.43;;;15.07;;
21038;SDS011;10678;51.002;4.786;2022-11-13T01:36:09;24.77;;;14.87;;
21038;SDS011;10678;51.002;4.786;2022-11-13T01:38:37;22.60;;;15.40;;
21038;SDS011;10678;51.002;4.786;2022-11-13T01:41:03;24.50;;;15.07;;
21038;SDS011;10678;51.002;4.786;2022-11-13T01:43:30;21.57;;;14.07;;
21038;SDS011;10678;51.002;4.786;2022-11-13T01:46:04;21.97;;;14.50;;
21038;SDS011;10678;51.002;4.786;2022-11-13T01:48:41;24.67;;;14.27;;
21038;SDS011;10678;51.002;4.786;2022-11-13T01:51:10;22.53;;;13.90;;
21038;SDS011;10678;51.002;4.786;2022-11-13T01:53:40;22.37;;;14.27;;
21038;SDS011;10678;51.002;4.786;2022-11-13T01:56:09;25.07;;;13.80;;
21038;SDS011;10678;51.002;4.786;2022-11-13T01:58:35;20.13;;;13.40;;
21038;SDS011;10678;51.002;4.786;2022-11-13T02:01:02;18.97;;;13.00;;
21038;SDS011;10678;51.002;4.786;2022-11-13T02:03:27;22.43;;;13.37;;
21038;SDS011;10678;51.002;4.786;2022-11-13T02:05:53;21.33;;;13.30;;
21038;SDS011;10678;51.002;4.786;2022-11-13T02:08:20;26.83;;;15.10;;
21038;SDS011;10678;51.002;4.786;2022-11-13T02:10:46;30.90;;;16.33;;
21038;SDS011;10678;51.002;4.786;2022-11-13T02:13:11;27.33;;;15.80;;
21038;SDS011;10678;51.002;4.786;2022-11-13T02:15:38;30.43;;;15.90;;
21038;SDS011;10678;51.002;4.786;2022-11-13T02:18:05;29.00;;;16.17;;
21038;SDS011;10678;51.002;4.786;2022-11-13T02:25:35;25.80;;;16.00;;
21038;SDS011;10678;51.002;4.786;2022-11-13T02:28:01;25.13;;;15.43;;
21038;SDS011;10678;51.002;4.786;2022-11-13T02:30:28;31.17;;;15.70;;
21038;SDS011;10678;51.002;4.786;2022-11-13T02:32:56;29.67;;;16.43;;
21038;SDS011;10678;51.002;4.786;2022-11-13T02:35:26;23.73;;;14.63;;
21038;SDS011;10678;51.002;4.786;2022-11-13T02:37:55;31.70;;;15.33;;
21038;SDS011;10678;51.002;4.786;2022-11-13T02:40:22;29.10;;;17.27;;
21038;SDS011;10678;51.002;4.786;2022-11-13T02:42:48;28.00;;;15.30;;
21038;SDS011;10678;51.002;4.786;2022-11-13T02:45:14;30.07;;;16.37;;
21038;SDS011;10678;51.002;4.786;2022-11-13T02:47:40;32.57;;;16.43;;
21038;SDS011;10678;51.002;4.786;2022-11-13T02:50:06;28.17;;;15.63;;
21038;SDS011;10678;51.002;4.786;2022-11-13T02:52:32;30.43;;;15.17;;
21038;SDS011;10678;51.002;4.786;2022-11-13T02:54:58;29.00;;;16.03;;
21038;SDS011;10678;51.002;4.786;2022-11-13T02:57:23;29.90;;;16.27;;
21038;SDS011;10678;51.002;4.786;2022-11-13T02:59:49;22.90;;;14.20;;
21038;SDS011;10678;51.002;4.786;2022-11-13T03:02:14;28.03;;;15.70;;
21038;SDS011;10678;51.002;4.786;2022-11-13T03:04:40;26.40;;;14.60;;
21038;SDS011;10678;51.002;4.786;2022-11-13T03:07:06;25.33;;;14.93;;
21038;SDS011;10678;51.002;4.786;2022-11-13T03:09:31;28.87;;;14.83;;
21038;SDS011;10678;51.002;4.786;2022-11-13T03:11:57;22.13;;;13.47;;
21038;SDS011;10678;51.002;4.786;2022-11-13T03:14:23;24.93;;;14.17;;
21038;SDS011;10678;51.002;4.786;2022-11-13T03:16:48;24.20;;;14.53;;
21038;SDS011;10678;51.002;4.786;2022-11-13T03:19:14;28.40;;;14.83;;
21038;SDS011;10678;51.002;4.786;2022-11-13T03:21:40;24.43;;;14.07;;
21038;SDS011;10678;51.002;4.786;2022-11-13T03:24:05;20.03;;;12.53;;
21038;SDS011;10678;51.002;4.786;2022-11-13T03:26:31;23.00;;;13.90;;
21038;SDS011;10678;51.002;4.786;2022-11-13T03:28:57;19.43;;;12.33;;
21038;SDS011;10678;51.002;4.786;2022-11-13T03:31:22;20.93;;;13.23;;
21038;SDS011;10678;51.002;4.786;2022-11-13T03:33:50;19.40;;;12.07;;
21038;SDS011;10678;51.002;4.786;2022-11-13T03:36:17;18.70;;;12.40;;
21038;SDS011;10678;51.002;4.786;2022-11-13T03:38:42;18.43;;;11.67;;
21038;SDS011;10678;51.002;4.786;2022-11-13T03:41:08;20.10;;;12.83;;
21038;SDS011;10678;51.002;4.786;2022-11-13T03:43:33;21.53;;;12.87;;
21038;SDS011;10678;51.002;4.786;2022-11-13T03:45:59;19.40;;;12.43;;
21038;SDS011;10678;51.002;4.786;2022-11-13T03:48:24;20.67;;;12.53;;
21038;SDS011;10678;51.002;4.786;2022-11-13T03:50:52;17.83;;;12.50;;
21038;SDS011;10678;51.002;4.786;2022-11-13T03:53:19;18.20;;;13.20;;
21038;SDS011;10678;51.002;4.786;2022-11-13T03:55:45;19.00;;;11.93;;
21038;SDS011;10678;51.002;4.786;2022-11-13T03:58:11;18.27;;;12.20;;
21038;SDS011;10678;51.002;4.786;2022-11-13T04:00:37;20.33;;;12.20;;
21038;SDS011;10678;51.002;4.786;2022-11-13T04:03:04;18.57;;;11.93;;
21038;SDS011;10678;51.002;4.786;2022-11-13T04:05:30;19.37;;;12.57;;
21038;SDS011;10678;51.002;4.786;2022-11-13T04:07:55;20.03;;;12.50;;
21038;SDS011;10678;51.002;4.786;2022-11-13T04:10:21;18.83;;;12.57;;
21038;SDS011;10678;51.002;4.786;2022-11-13T04:12:47;22.60;;;13.47;;
21038;SDS011;10678;51.002;4.786;2022-11-13T04:15:12;21.03;;;12.70;;
21038;SDS011;10678;51.002;4.786;2022-11-13T04:17:38;21.87;;;13.73;;
21038;SDS011;10678;51.002;4.786;2022-11-13T04:20:04;20.10;;;12.63;;
21038;SDS011;10678;51.002;4.786;2022-11-13T04:22:30;22.20;;;13.07;;
21038;SDS011;10678;51.002;4.786;2022-11-13T04:24:55;23.63;;;13.37;;
21038;SDS011;10678;51.002;4.786;2022-11-13T04:27:21;18.43;;;11.77;;
21038;SDS011;10678;51.002;4.786;2022-11-13T04:29:47;19.10;;;12.27;;
21038;SDS011;10678;51.002;4.786;2022-11-13T04:32:12;22.93;;;13.13;;
21038;SDS011;10678;51.002;4.786;2022-11-13T04:34:38;20.60;;;13.00;;
21038;SDS011;10678;51.002;4.786;2022-11-13T04:37:03;24.43;;;13.33;;
21038;SDS011;10678;51.002;4.786;2022-11-13T04:39:29;21.43;;;13.23;;
21038;SDS011;10678;51.002;4.786;2022-11-13T04:41:54;23.10;;;11.47;;
21038;SDS011;10678;51.002;4.786;2022-11-13T04:44:39;19.50;;;12.23;;
21038;SDS011;10678;51.002;4.786;2022-11-13T04:47:04;18.83;;;12.50;;
21038;SDS011;10678;51.002;4.786;2022-11-13T04:49:30;19.33;;;12.20;;
21038;SDS011;10678;51.002;4.786;2022-11-13T04:51:55;21.57;;;12.87;;
21038;SDS011;10678;51.002;4.786;2022-11-13T04:54:21;21.07;;;13.77;;
21038;SDS011;10678;51.002;4.786;2022-11-13T04:56:47;15.87;;;11.10;;
21038;SDS011;10678;51.002;4.786;2022-11-13T04:59:12;18.80;;;12.17;;
21038;SDS011;10678;51.002;4.786;2022-11-13T05:01:38;19.73;;;12.43;;
21038;SDS011;10678;51.002;4.786;2022-11-13T05:04:03;20.13;;;12.07;;
21038;SDS011;10678;51.002;4.786;2022-11-13T05:06:29;19.60;;;11.87;;
21038;SDS011;10678;51.002;4.786;2022-11-13T05:08:55;22.43;;;13.03;;
21038;SDS011;10678;51.002;4.786;2022-11-13T05:11:20;17.30;;;11.80;;
21038;SDS011;10678;51.002;4.786;2022-11-13T05:13:46;18.37;;;11.90;;
21038;SDS011;10678;51.002;4.786;2022-11-13T05:16:12;22.13;;;12.57;;
21038;SDS011;10678;51.002;4.786;2022-11-13T05:18:39;25.77;;;14.07;;
21038;SDS011;10678;51.002;4.786;2022-11-13T05:21:06;24.30;;;13.30;;
21038;SDS011;10678;51.002;4.786;2022-11-13T05:23:33;20.17;;;12.70;;
21038;SDS011;10678;51.002;4.786;2022-11-13T05:26:03;18.30;;;11.73;;
21038;SDS011;10678;51.002;4.786;2022-11-13T05:28:36;17.43;;;12.30;;
21038;SDS011;10678;51.002;4.786;2022-11-13T05:31:03;19.90;;;12.73;;
21038;SDS011;10678;51.002;4.786;2022-11-13T05:33:30;19.30;;;12.53;;
21038;SDS011;10678;51.002;4.786;2022-11-13T05:35:59;18.90;;;12.47;;
21038;SDS011;10678;51.002;4.786;2022-11-13T05:38:28;17.83;;;11.10;;
21038;SDS011;10678;51.002;4.786;2022-11-13T05:40:55;18.53;;;11.37;;
21038;SDS011;10678;51.002;4.786;2022-11-13T05:43:44;20.77;;;11.93;;
21038;SDS011;10678;51.002;4.786;2022-11-13T05:46:12;18.43;;;12.20;;
21038;SDS011;10678;51.002;4.786;2022-11-13T05:48:39;18.97;;;11.47;;
21038;SDS011;10678;51.002;4.786;2022-11-13T05:51:07;18.10;;;11.53;;
21038;SDS011;10678;51.002;4.786;2022-11-13T05:53:35;18.60;;;10.93;;
21038;SDS011;10678;51.002;4.786;2022-11-13T05:56:05;17.60;;;10.87;;
21038;SDS011;10678;51.002;4.786;2022-11-13T05:58:32;16.30;;;11.47;;
21038;SDS011;10678;51.002;4.786;2022-11-13T06:03:41;15.00;;;10.50;;
21038;SDS011;10678;51.002;4.786;2022-11-13T06:06:07;15.87;;;10.73;;
21038;SDS011;10678;51.002;4.786;2022-11-13T06:08:34;16.10;;;9.87;;
21038;SDS011;10678;51.002;4.786;2022-11-13T06:11:01;16.20;;;10.37;;
21038;SDS011;10678;51.002;4.786;2022-11-13T06:13:32;15.20;;;10.47;;
21038;SDS011;10678;51.002;4.786;2022-11-13T06:16:01;14.10;;;9.77;;
21038;SDS011;10678;51.002;4.786;2022-11-13T06:18:28;16.60;;;9.93;;
21038;SDS011;10678;51.002;4.786;2022-11-13T06:20:54;15.57;;;10.47;;
21038;SDS011;10678;51.002;4.786;2022-11-13T06:23:19;17.23;;;9.80;;
21038;SDS011;10678;51.002;4.786;2022-11-13T06:25:45;15.00;;;10.00;;
21038;SDS011;10678;51.002;4.786;2022-11-13T06:28:11;13.97;;;9.37;;
21038;SDS011;10678;51.002;4.786;2022-11-13T06:30:37;16.30;;;10.20;;
21038;SDS011;10678;51.002;4.786;2022-11-13T06:33:02;15.27;;;9.43;;
21038;SDS011;10678;51.002;4.786;2022-11-13T06:35:28;16.30;;;11.57;;
21038;SDS011;10678;51.002;4.786;2022-11-13T06:37:54;16.40;;;10.43;;
21038;SDS011;10678;51.002;4.786;2022-11-13T06:40:20;14.20;;;9.63;;
21038;SDS011;10678;51.002;4.786;2022-11-13T06:42:45;16.93;;;10.70;;
21038;SDS011;10678;51.002;4.786;2022-11-13T06:45:11;14.77;;;9.20;;
21038;SDS011;10678;51.002;4.786;2022-11-13T06:47:36;18.10;;;9.97;;
21038;SDS011;10678;51.002;4.786;2022-11-13T06:50:02;15.63;;;9.67;;
21038;SDS011;10678;51.002;4.786;2022-11-13T06:52:28;15.17;;;9.70;;
21038;SDS011;10678;51.002;4.786;2022-11-13T06:54:54;16.77;;;10.97;;
21038;SDS011;10678;51.002;4.786;2022-11-13T06:57:19;17.27;;;10.70;;
21038;SDS011;10678;51.002;4.786;2022-11-13T06:59:45;17.53;;;10.73;;
21038;SDS011;10678;51.002;4.786;2022-11-13T07:02:10;15.73;;;10.53;;
21038;SDS011;10678;51.002;4.786;2022-11-13T07:04:36;15.43;;;10.30;;
21038;SDS011;10678;51.002;4.786;2022-11-13T07:07:02;18.53;;;10.77;;
21038;SDS011;10678;51.002;4.786;2022-11-13T07:09:28;16.43;;;10.63;;
21038;SDS011;10678;51.002;4.786;2022-11-13T07:11:54;18.47;;;11.03;;
21038;SDS011;10678;51.002;4.786;2022-11-13T07:14:20;15.27;;;9.83;;
21038;SDS011;10678;51.002;4.786;2022-11-13T07:16:46;14.77;;;10.07;;
21038;SDS011;10678;51.002;4.786;2022-11-13T07:19:12;15.70;;;9.67;;
21038;SDS011;10678;51.002;4.786;2022-11-13T07:21:37;13.60;;;9.33;;
21038;SDS011;10678;51.002;4.786;2022-11-13T07:24:03;16.80;;;9.97;;
21038;SDS011;10678;51.002;4.786;2022-11-13T07:26:29;18.50;;;10.03;;
21038;SDS011;10678;51.002;4.786;2022-11-13T07:28:54;16.57;;;10.07;;
21038;SDS011;10678;51.002;4.786;2022-11-13T07:31:20;17.00;;;9.67;;
21038;SDS011;10678;51.002;4.786;2022-11-13T07:33:46;19.17;;;10.37;;
21038;SDS011;10678;51.002;4.786;2022-11-13T07:36:13;18.37;;;10.90;;
21038;SDS011;10678;51.002;4.786;2022-11-13T07:38:39;18.77;;;9.70;;
21038;SDS011;10678;51.002;4.786;2022-11-13T07:41:05;16.10;;;10.03;;
21038;SDS011;10678;51.002;4.786;2022-11-13T07:43:31;16.60;;;10.33;;
21038;SDS011;10678;51.002;4.786;2022-11-13T07:45:57;16.33;;;9.83;;
21038;SDS011;10678;51.002;4.786;2022-11-13T07:48:23;15.17;;;9.53;;
21038;SDS011;10678;51.002;4.786;2022-11-13T07:50:51;15.33;;;9.57;;
21038;SDS011;10678;51.002;4.786;2022-11-13T07:53:17;15.07;;;9.83;;
21038;SDS011;10678;51.002;4.786;2022-11-13T07:55:43;16.27;;;9.93;;
21038;SDS011;10678;51.002;4.786;2022-11-13T07:58:09;17.40;;;10.37;;
21038;SDS011;10678;51.002;4.786;2022-11-13T08:00:35;15.80;;;9.67;;
21038;SDS011;10678;51.002;4.786;2022-11-13T08:03:05;15.83;;;9.93;;
21038;SDS011;10678;51.002;4.786;2022-11-13T08:05:35;17.63;;;11.77;;
21038;SDS011;10678;51.002;4.786;2022-11-13T08:08:01;20.20;;;12.10;;
21038;SDS011;10678;51.002;4.786;2022-11-13T08:10:27;23.43;;;12.10;;
21038;SDS011;10678;51.002;4.786;2022-11-13T08:12:59;17.67;;;11.97;;
21038;SDS011;10678;51.002;4.786;2022-11-13T08:15:30;17.50;;;10.57;;
21038;SDS011;10678;51.002;4.786;2022-11-13T08:17:56;18.80;;;11.60;;
21038;SDS011;10678;51.002;4.786;2022-11-13T08:20:24;18.57;;;12.97;;
21038;SDS011;10678;51.002;4.786;2022-11-13T08:22:51;23.00;;;13.57;;
21038;SDS011;10678;51.002;4.786;2022-11-13T08:25:20;16.57;;;11.23;;
21038;SDS011;10678;51.002;4.786;2022-11-13T08:27:45;19.23;;;11.67;;
21038;SDS011;10678;51.002;4.786;2022-11-13T08:30:11;15.27;;;10.63;;
21038;SDS011;10678;51.002;4.786;2022-11-13T08:32:37;17.40;;;11.63;;
21038;SDS011;10678;51.002;4.786;2022-11-13T08:35:03;18.63;;;12.43;;
21038;SDS011;10678;51.002;4.786;2022-11-13T08:37:29;16.37;;;12.00;;
21038;SDS011;10678;51.002;4.786;2022-11-13T08:39:54;18.07;;;12.33;;
21038;SDS011;10678;51.002;4.786;2022-11-13T08:42:20;17.20;;;11.27;;
21038;SDS011;10678;51.002;4.786;2022-11-13T08:44:45;15.07;;;10.53;;
21038;SDS011;10678;51.002;4.786;2022-11-13T08:47:11;17.40;;;11.63;;
21038;SDS011;10678;51.002;4.786;2022-11-13T08:49:36;16.77;;;11.50;;
21038;SDS011;10678;51.002;4.786;2022-11-13T08:52:02;19.83;;;12.40;;
21038;SDS011;10678;51.002;4.786;2022-11-13T08:54:28;17.57;;;11.47;;
21038;SDS011;10678;51.002;4.786;2022-11-13T08:56:53;17.23;;;11.53;;
21038;SDS011;10678;51.002;4.786;2022-11-13T08:59:19;23.97;;;12.23;;
21038;SDS011;10678;51.002;4.786;2022-11-13T09:01:44;17.93;;;11.97;;
21038;SDS011;10678;51.002;4.786;2022-11-13T09:04:10;19.87;;;11.87;;
21038;SDS011;10678;51.002;4.786;2022-11-13T09:06:35;23.90;;;11.07;;
21038;SDS011;10678;51.002;4.786;2022-11-13T09:09:03;18.73;;;12.53;;
21038;SDS011;10678;51.002;4.786;2022-11-13T09:11:30;17.13;;;12.43;;
21038;SDS011;10678;51.002;4.786;2022-11-13T09:13:56;24.83;;;13.23;;
21038;SDS011;10678;51.002;4.786;2022-11-13T09:16:21;16.00;;;11.40;;
21038;SDS011;10678;51.002;4.786;2022-11-13T09:18:48;21.50;;;11.77;;
21038;SDS011;10678;51.002;4.786;2022-11-13T09:21:17;19.30;;;12.03;;
21038;SDS011;10678;51.002;4.786;2022-11-13T09:23:42;22.10;;;13.30;;
21038;SDS011;10678;51.002;4.786;2022-11-13T09:26:08;16.00;;;11.53;;
21038;SDS011;10678;51.002;4.786;2022-11-13T09:28:34;18.47;;;12.33;;
21038;SDS011;10678;51.002;4.786;2022-11-13T09:31:03;20.38;;;12.75;;
21038;SDS011;10678;51.002;4.786;2022-11-13T09:33:29;18.47;;;12.37;;
21038;SDS011;10678;51.002;4.786;2022-11-13T09:35:55;19.03;;;11.80;;
21038;SDS011;10678;51.002;4.786;2022-11-13T09:38:21;19.85;;;12.55;;
21038;SDS011;10678;51.002;4.786;2022-11-13T09:49:03;16.65;;;11.45;;
21038;SDS011;10678;51.002;4.786;2022-11-13T09:51:33;17.27;;;11.25;;
21038;SDS011;10678;51.002;4.786;2022-11-13T09:54:03;16.17;;;12.07;;
21038;SDS011;10678;51.002;4.786;2022-11-13T09:56:51;17.80;;;11.60;;
21038;SDS011;10678;51.002;4.786;2022-11-13T10:04:56;19.42;;;10.98;;
21038;SDS011;10678;51.002;4.786;2022-11-13T10:07:50;18.77;;;12.27;;
21038;SDS011;10678;51.002;4.786;2022-11-13T10:13:13;19.98;;;12.18;;
21038;SDS011;10678;51.002;4.786;2022-11-13T10:15:43;18.17;;;12.18;;
21038;SDS011;10678;51.002;4.786;2022-11-13T10:18:14;17.92;;;12.35;;
21038;SDS011;10678;51.002;4.786;2022-11-13T10:21:09;19.80;;;13.20;;
21038;SDS011;10678;51.002;4.786;2022-11-13T10:23:38;20.88;;;13.50;;
21038;SDS011;10678;51.002;4.786;2022-11-13T10:26:24;19.38;;;12.50;;
21038;SDS011;10678;51.002;4.786;2022-11-13T10:28:55;19.45;;;12.82;;
21038;SDS011;10678;51.002;4.786;2022-11-13T10:31:26;18.35;;;12.25;;
21038;SDS011;10678;51.002;4.786;2022-11-13T10:33:51;18.08;;;12.07;;
21038;SDS011;10678;51.002;4.786;2022-11-13T10:36:33;22.60;;;12.63;;
21038;SDS011;10678;51.002;4.786;2022-11-13T10:39:04;19.52;;;11.45;;
21038;SDS011;10678;51.002;4.786;2022-11-13T10:41:31;18.63;;;12.13;;
21038;SDS011;10678;51.002;4.786;2022-11-13T10:44:04;19.38;;;11.30;;
21038;SDS011;10678;51.002;4.786;2022-11-13T10:46:30;17.58;;;11.70;;
21038;SDS011;10678;51.002;4.786;2022-11-13T10:48:57;15.05;;;10.27;;
21038;SDS011;10678;51.002;4.786;2022-11-13T10:51:34;21.42;;;11.98;;
21038;SDS011;10678;51.002;4.786;2022-11-13T10:54:09;14.60;;;10.70;;
21038;SDS011;10678;51.002;4.786;2022-11-13T10:56:44;14.73;;;9.25;;
21038;SDS011;10678;51.002;4.786;2022-11-13T10:59:25;12.57;;;7.95;;
21038;SDS011;10678;51.002;4.786;2022-11-13T11:02:08;11.00;;;7.53;;
21038;SDS011;10678;51.002;4.786;2022-11-13T11:04:47;10.02;;;6.53;;
21038;SDS011;10678;51.002;4.786;2022-11-13T11:07:20;11.18;;;7.50;;
21038;SDS011;10678;51.002;4.786;2022-11-13T11:09:47;8.93;;;6.35;;
21038;SDS011;10678;51.002;4.786;2022-11-13T11:12:18;9.73;;;6.55;;
21038;SDS011;10678;51.002;4.786;2022-11-13T11:17:32;11.18;;;7.35;;
21038;SDS011;10678;51.002;4.786;2022-11-13T11:22:59;10.10;;;7.32;;
21038;SDS011;10678;51.002;4.786;2022-11-13T11:25:36;11.40;;;6.93;;
21038;SDS011;10678;51.002;4.786;2022-11-13T11:28:27;10.63;;;7.53;;
21038;SDS011;10678;51.002;4.786;2022-11-13T11:33:57;11.30;;;7.35;;
21038;SDS011;10678;51.002;4.786;2022-11-13T11:39:01;14.15;;;8.15;;
21038;SDS011;10678;51.002;4.786;2022-11-13T11:41:41;13.00;;;8.65;;
21038;SDS011;10678;51.002;4.786;2022-11-13T11:44:32;11.68;;;7.43;;
21038;SDS011;10678;51.002;4.786;2022-11-13T11:47:15;11.82;;;7.50;;
21038;SDS011;10678;51.002;4.786;2022-11-13T11:49:44;9.70;;;6.90;;
21038;SDS011;10678;51.002;4.786;2022-11-13T11:52:57;11.10;;;7.20;;
21038;SDS011;10678;51.002;4.786;2022-11-13T11:57:57;13.02;;;6.00;;
21038;SDS011;10678;51.002;4.786;2022-11-13T12:00:55;9.05;;;6.40;;
21038;SDS011;10678;51.002;4.786;2022-11-13T12:08:44;8.70;;;5.65;;
21038;SDS011;10678;51.002;4.786;2022-11-13T12:27:27;8.57;;;6.05;;
21038;SDS011;10678;51.002;4.786;2022-11-13T12:33:15;10.73;;;6.65;;
21038;SDS011;10678;51.002;4.786;2022-11-13T12:35:29;8.38;;;5.90;;
21038;SDS011;10678;51.002;4.786;2022-11-13T12:41:05;11.70;;;6.22;;
21038;SDS011;10678;51.002;4.786;2022-11-13T12:46:16;8.60;;;5.55;;
21038;SDS011;10678;51.002;4.786;2022-11-13T12:48:43;9.98;;;5.95;;
21038;SDS011;10678;51.002;4.786;2022-11-13T12:51:11;14.98;;;5.70;;
21038;SDS011;10678;51.002;4.786;2022-11-13T12:53:49;10.43;;;5.25;;
21038;SDS011;10678;51.002;4.786;2022-11-13T12:59:31;9.30;;;5.63;;
21038;SDS011;10678;51.002;4.786;2022-11-13T13:07:21;9.68;;;6.03;;
21038;SDS011;10678;51.002;4.786;2022-11-13T13:15:38;9.93;;;6.28;;
21038;SDS011;10678;51.002;4.786;2022-11-13T13:18:09;12.05;;;7.07;;
21038;SDS011;10678;51.002;4.786;2022-11-13T13:24:07;11.45;;;6.97;;
21038;SDS011;10678;51.002;4.786;2022-11-13T13:26:56;14.32;;;6.85;;
21038;SDS011;10678;51.002;4.786;2022-11-13T13:29:25;13.10;;;7.30;;
21038;SDS011;10678;51.002;4.786;2022-11-13T13:34:42;12.30;;;6.85;;
21038;SDS011;10678;51.002;4.786;2022-11-13T13:45:34;11.57;;;6.20;;
21038;SDS011;10678;51.002;4.786;2022-11-13T13:48:25;10.23;;;6.00;;
21038;SDS011;10678;51.002;4.786;2022-11-13T13:50:53;15.88;;;7.35;;
21038;SDS011;10678;51.002;4.786;2022-11-13T13:53:21;13.68;;;7.28;;
21038;SDS011;10678;51.002;4.786;2022-11-13T13:55:51;10.40;;;6.60;;
21038;SDS011;10678;51.002;4.786;2022-11-13T13:58:22;14.68;;;7.07;;
21038;SDS011;10678;51.002;4.786;2022-11-13T14:01:00;13.55;;;7.28;;
21038;SDS011;10678;51.002;4.786;2022-11-13T14:03:28;12.55;;;7.03;;
21038;SDS011;10678;51.002;4.786;2022-11-13T14:05:54;10.70;;;6.28;;
21038;SDS011;10678;51.002;4.786;2022-11-13T14:08:31;13.07;;;6.28;;
21038;SDS011;10678;51.002;4.786;2022-11-13T14:10:56;11.02;;;6.10;;
21038;SDS011;10678;51.002;4.786;2022-11-13T14:13:23;13.13;;;6.18;;
21038;SDS011;10678;51.002;4.786;2022-11-13T14:16:03;10.57;;;5.55;;
21038;SDS011;10678;51.002;4.786;2022-11-13T14:18:30;10.20;;;6.05;;
21038;SDS011;10678;51.002;4.786;2022-11-13T14:20:57;12.10;;;5.35;;
21038;SDS011;10678;51.002;4.786;2022-11-13T14:23:32;13.00;;;6.22;;
21038;SDS011;10678;51.002;4.786;2022-11-13T14:26:04;12.48;;;5.93;;
21038;SDS011;10678;51.002;4.786;2022-11-13T14:28:41;11.27;;;6.18;;
21038;SDS011;10678;51.002;4.786;2022-11-13T14:31:19;9.20;;;5.32;;
21038;SDS011;10678;51.002;4.786;2022-11-13T14:33:51;9.43;;;5.65;;
21038;SDS011;10678;51.002;4.786;2022-11-13T14:36:23;11.60;;;6.07;;
21038;SDS011;10678;51.002;4.786;2022-11-13T14:38:51;10.63;;;6.38;;
21038;SDS011;10678;51.002;4.786;2022-11-13T14:44:10;10.73;;;6.45;;
21038;SDS011;10678;51.002;4.786;2022-11-13T14:46:38;11.82;;;7.05;;
21038;SDS011;10678;51.002;4.786;2022-11-13T14:52:04;14.27;;;7.78;;
21038;SDS011;10678;51.002;4.786;2022-11-13T14:57:11;14.23;;;7.60;;
21038;SDS011;10678;51.002;4.786;2022-11-13T14:59:37;13.27;;;7.90;;
21038;SDS011;10678;51.002;4.786;2022-11-13T15:02:08;17.67;;;8.38;;
21038;SDS011;10678;51.002;4.786;2022-11-13T15:04:35;14.25;;;8.07;;
21038;SDS011;10678;51.002;4.786;2022-11-13T15:07:01;15.05;;;7.57;;
21038;SDS011;10678;51.002;4.786;2022-11-13T15:09:41;16.08;;;7.55;;
21038;SDS011;10678;51.002;4.786;2022-11-13T15:12:09;16.98;;;8.63;;
21038;SDS011;10678;51.002;4.786;2022-11-13T15:14:36;14.90;;;7.90;;
21038;SDS011;10678;51.002;4.786;2022-11-13T15:17:06;17.10;;;8.73;;
21038;SDS011;10678;51.002;4.786;2022-11-13T15:19:37;12.65;;;8.25;;
21038;SDS011;10678;51.002;4.786;2022-11-13T15:22:03;19.13;;;9.13;;
21038;SDS011;10678;51.002;4.786;2022-11-13T15:24:32;18.58;;;10.07;;
21038;SDS011;10678;51.002;4.786;2022-11-13T15:26:58;15.10;;;8.65;;
21038;SDS011;10678;51.002;4.786;2022-11-13T15:29:23;18.63;;;10.18;;
21038;SDS011;10678;51.002;4.786;2022-11-13T15:31:49;21.02;;;10.48;;
21038;SDS011;10678;51.002;4.786;2022-11-13T15:34:15;19.40;;;10.70;;
21038;SDS011;10678;51.002;4.786;2022-11-13T15:36:41;17.38;;;9.98;;
21038;SDS011;10678;51.002;4.786;2022-11-13T15:39:07;17.70;;;10.57;;
21038;SDS011;10678;51.002;4.786;2022-11-13T15:41:34;18.85;;;9.90;;
21038;SDS011;10678;51.002;4.786;2022-11-13T15:44:00;15.07;;;9.10;;
21038;SDS011;10678;51.002;4.786;2022-11-13T15:46:31;20.92;;;11.20;;
21038;SDS011;10678;51.002;4.786;2022-11-13T15:48:56;20.92;;;10.90;;
21038;SDS011;10678;51.002;4.786;2022-11-13T15:51:28;18.27;;;10.73;;
21038;SDS011;10678;51.002;4.786;2022-11-13T15:54:00;22.30;;;10.88;;
21038;SDS011;10678;51.002;4.786;2022-11-13T15:56:28;15.15;;;9.60;;
21038;SDS011;10678;51.002;4.786;2022-11-13T15:58:55;17.02;;;11.27;;
21038;SDS011;10678;51.002;4.786;2022-11-13T16:01:21;19.75;;;10.80;;
21038;SDS011;10678;51.002;4.786;2022-11-13T16:03:47;21.58;;;10.60;;
21038;SDS011;10678;51.002;4.786;2022-11-13T16:06:16;20.48;;;10.65;;
21038;SDS011;10678;51.002;4.786;2022-11-13T16:08:45;18.33;;;10.13;;
21038;SDS011;10678;51.002;4.786;2022-11-13T16:11:15;20.77;;;10.85;;
21038;SDS011;10678;51.002;4.786;2022-11-13T16:13:42;18.50;;;10.65;;
21038;SDS011;10678;51.002;4.786;2022-11-13T16:18:47;21.88;;;10.95;;
21038;SDS011;10678;51.002;4.786;2022-11-13T16:21:14;22.15;;;11.63;;